createdAt,value
2022-12-13T00:02:07.273Z,96975.38
2022-12-13T00:04:35.678Z,96984.91
2022-12-13T00:07:02.216Z,96984.69
2022-12-13T00:09:28.939Z,96981.00
2022-12-13T00:12:01.276Z,96982.84
2022-12-13T00:14:27.751Z,96977.06
2022-12-13T00:16:56.169Z,96978.44
2022-12-13T00:19:22.946Z,96973.44
2022-12-13T00:21:49.449Z,96964.78
2022-12-13T00:24:16.307Z,96968.47
2022-12-13T00:26:44.793Z,96970.41
2022-12-13T00:29:12.014Z,96968.75
2022-12-13T00:31:59.951Z,96965.72
2022-12-13T00:34:25.985Z,96966.47
2022-12-13T00:37:00.811Z,96964.94
2022-12-13T00:39:28.185Z,96954.19
2022-12-13T00:41:54.638Z,96959.38
2022-12-13T00:44:23.166Z,96952.84
2022-12-13T00:46:51.823Z,96952.84
2022-12-13T00:49:20.493Z,96942.31
2022-12-13T00:51:49.907Z,96936.81
2022-12-13T00:54:16.662Z,96945.28
2022-12-13T00:56:43.194Z,96944.13
2022-12-13T00:59:16.280Z,96947.34
2022-12-13T01:01:43.370Z,96951.63
2022-12-13T01:04:11.039Z,96953.97
2022-12-13T01:06:45.211Z,96950.63
2022-12-13T01:09:27.227Z,96947.50
2022-12-13T01:11:59.526Z,96957.81
2022-12-13T01:14:26.959Z,96948.41
2022-12-13T01:16:57.202Z,96955.84
2022-12-13T01:19:25.616Z,96947.72
2022-12-13T01:21:55.558Z,96948.75
2022-12-13T01:24:24.760Z,96943.88
2022-12-13T01:26:52.519Z,96947.00
2022-12-13T01:29:26.992Z,96944.03
2022-12-13T01:31:54.247Z,96930.22
2022-12-13T01:34:26.698Z,96938.13
2022-12-13T01:36:58.322Z,96924.97
2022-12-13T01:39:29.572Z,96926.09
2022-12-13T01:41:59.568Z,96924.59
2022-12-13T01:44:58.482Z,96921.84
2022-12-13T01:47:30.525Z,96925.38
2022-12-13T01:50:03.807Z,96917.34
2022-12-13T01:52:33.638Z,96909.78
2022-12-13T01:55:06.422Z,96913.53
2022-12-13T01:57:38.541Z,96907.78
2022-12-13T02:00:12.688Z,96916.69
2022-12-13T02:02:39.818Z,96907.31
2022-12-13T02:05:09.236Z,96906.22
2022-12-13T02:07:38.262Z,96905.22
2022-12-13T02:10:07.828Z,96904.72
2022-12-13T02:12:37.528Z,96918.34
2022-12-13T02:15:21.181Z,96909.69
2022-12-13T02:18:26.505Z,96904.22
2022-12-13T02:21:05.469Z,96899.41
2022-12-13T02:23:52.587Z,96903.94
2022-12-13T02:26:46.275Z,96894.16
2022-12-13T02:29:50.489Z,96889.34
2022-12-13T02:32:55.975Z,96888.19
2022-12-13T02:35:34.970Z,96885.06
2022-12-13T02:38:16.769Z,96881.28
2022-12-13T02:40:55.878Z,96882.06
2022-12-13T02:43:37.330Z,96878.09
2022-12-13T02:46:12.806Z,96880.25
2022-12-13T02:48:42.645Z,96887.03
2022-12-13T02:51:13.637Z,96884.22
2022-12-13T02:53:41.872Z,96882.69
2022-12-13T02:56:14.964Z,96883.28
2022-12-13T02:58:49.235Z,96874.59
2022-12-13T03:01:40.914Z,96873.59
2022-12-13T03:05:03.068Z,96871.03
2022-12-13T03:07:41.122Z,96866.06
2022-12-13T03:10:20.282Z,96867.78
2022-12-13T03:13:38.712Z,96857.03
2022-12-13T03:16:22.756Z,96856.81
2022-12-13T03:18:56.746Z,96864.19
2022-12-13T03:21:23.706Z,96859.72
2022-12-13T03:23:52.727Z,96865.81
2022-12-13T03:26:25.540Z,96866.88
2022-12-13T03:28:52.958Z,96855.38
2022-12-13T03:31:19.937Z,96859.91
2022-12-13T03:33:51.078Z,96852.56
2022-12-13T03:36:19.007Z,96863.16
2022-12-13T03:38:47.718Z,96865.56
2022-12-13T03:41:18.204Z,96857.97
2022-12-13T03:43:46.955Z,96861.44
2022-12-13T03:46:13.543Z,96861.72
2022-12-13T03:48:42.580Z,96857.50
2022-12-13T03:51:09.055Z,96848.88
2022-12-13T03:53:35.586Z,96854.88
2022-12-13T03:56:09.943Z,96859.66
2022-12-13T03:58:38.240Z,96859.91
2022-12-13T04:01:06.978Z,96852.59
2022-12-13T04:03:33.800Z,96859.41
2022-12-13T04:06:00.637Z,96863.38
2022-12-13T04:08:27.237Z,96859.72
2022-12-13T04:10:53.879Z,96856.63
2022-12-13T04:13:35.537Z,96855.03
2022-12-13T04:16:06.883Z,96851.09
2022-12-13T04:18:33.402Z,96852.94
2022-12-13T04:20:59.872Z,96845.06
2022-12-13T04:23:28.122Z,96848.75
2022-12-13T04:25:54.720Z,96841.06
2022-12-13T04:28:24.609Z,96841.88
2022-12-13T04:30:53.398Z,96841.88
2022-12-13T04:33:22.008Z,96839.53
2022-12-13T04:35:49.209Z,96847.16
2022-12-13T04:38:22.333Z,96842.44
2022-12-13T04:40:48.892Z,96845.09
2022-12-13T04:43:15.518Z,96836.94
2022-12-13T04:45:43.927Z,96847.16
2022-12-13T04:48:10.601Z,96843.78
2022-12-13T04:50:40.575Z,96840.06
2022-12-13T04:53:08.872Z,96844.34
2022-12-13T04:55:37.053Z,96839.63
2022-12-13T04:58:03.685Z,96835.72
2022-12-13T05:00:30.353Z,96830.47
2022-12-13T05:02:57.136Z,96828.91
2022-12-13T05:05:23.634Z,96835.22
2022-12-13T05:07:52.075Z,96831.84
2022-12-13T05:10:34.046Z,96840.56
2022-12-13T05:13:06.789Z,96849.78
2022-12-13T05:15:34.089Z,96846.09
2022-12-13T05:18:09.986Z,96843.19
2022-12-13T05:20:41.189Z,96830.13
2022-12-13T05:23:07.729Z,96828.63
2022-12-13T05:25:37.114Z,96829.19
2022-12-13T05:28:08.816Z,96831.34
2022-12-13T05:30:52.549Z,96824.53
2022-12-13T05:33:28.745Z,96823.53
2022-12-13T05:36:01.461Z,96816.72
2022-12-13T05:38:29.705Z,96818.78
2022-12-13T05:40:58.346Z,96821.13
2022-12-13T05:43:24.874Z,96825.31
2022-12-13T05:46:12.513Z,96823.22
2022-12-13T05:48:41.777Z,96827.44
2022-12-13T05:51:10.012Z,96820.91
2022-12-13T05:53:38.425Z,96818.84
2022-12-13T05:56:05.213Z,96816.72
2022-12-13T05:58:36.000Z,96816.16
2022-12-13T06:01:17.402Z,96820.09
2022-12-13T06:03:44.452Z,96809.59
2022-12-13T06:06:12.383Z,96811.19
2022-12-13T06:08:40.140Z,96824.53
2022-12-13T06:11:09.920Z,96814.59
2022-12-13T06:13:42.101Z,96813.03
2022-12-13T06:16:22.548Z,96815.13
2022-12-13T06:19:01.400Z,96821.75
2022-12-13T06:21:43.430Z,96817.22
2022-12-13T06:24:14.224Z,96819.28
2022-12-13T06:26:40.854Z,96828.72
2022-12-13T06:29:07.610Z,96817.44
2022-12-13T06:31:34.084Z,96825.56
2022-12-13T06:34:13.998Z,96825.56
2022-12-13T06:36:41.540Z,96818.69
2022-12-13T06:39:10.181Z,96829.38
2022-12-13T06:41:38.884Z,96822.47
2022-12-13T06:44:05.455Z,96823.75
2022-12-13T06:46:32.752Z,96823.69
2022-12-13T06:48:59.456Z,96824.47
2022-12-13T06:51:32.529Z,96827.91
2022-12-13T06:54:00.893Z,96825.22
2022-12-13T06:56:32.220Z,96820.41
2022-12-13T06:59:02.072Z,96827.16
2022-12-13T07:01:37.063Z,96825.03
2022-12-13T07:04:29.741Z,96833.16
2022-12-13T07:06:56.251Z,96820.75
2022-12-13T07:09:30.550Z,96817.25
2022-12-13T07:11:59.283Z,96825.88
2022-12-13T07:14:26.173Z,96813.25
2022-12-13T07:16:59.579Z,96823.97
2022-12-13T07:19:42.208Z,96826.31
2022-12-13T07:22:10.681Z,96823.63
2022-12-13T07:24:37.512Z,96817.50
2022-12-13T07:27:04.653Z,96825.63
2022-12-13T07:29:31.736Z,96826.63
2022-12-13T07:32:01.814Z,96830.53
2022-12-13T07:34:38.736Z,96838.63
2022-12-13T07:37:05.242Z,96838.56
2022-12-13T07:39:32.336Z,96838.00
2022-12-13T07:42:04.929Z,96845.31
2022-12-13T07:44:33.743Z,96852.09
2022-12-13T07:47:00.350Z,96849.94
2022-12-13T07:49:28.595Z,96856.97
2022-12-13T07:51:55.096Z,96863.53
2022-12-13T07:54:23.921Z,96859.75
2022-12-13T07:56:50.972Z,96862.31
2022-12-13T07:59:17.429Z,96872.25
2022-12-13T08:01:55.581Z,96866.44
2022-12-13T08:04:22.115Z,96863.44
2022-12-13T08:06:48.834Z,96864.16
2022-12-13T08:09:15.436Z,96868.84
2022-12-13T08:11:41.901Z,96867.19
2022-12-13T08:14:08.675Z,96854.75
2022-12-13T08:16:37.490Z,96858.31
2022-12-13T08:19:04.826Z,96861.94
2022-12-13T08:22:01.813Z,96865.16
2022-12-13T08:24:30.263Z,96869.78
2022-12-13T08:27:07.361Z,96863.38
2022-12-13T08:29:35.906Z,96862.41
2022-12-13T08:32:09.428Z,96860.28
2022-12-13T08:34:36.938Z,96863.81
2022-12-13T08:37:04.551Z,96871.59
2022-12-13T08:39:35.650Z,96876.50
2022-12-13T08:42:19.516Z,96882.75
2022-12-13T08:44:50.671Z,96877.19
2022-12-13T08:47:23.376Z,96881.56
2022-12-13T08:50:01.951Z,96884.44
2022-12-13T08:52:32.288Z,96893.03
2022-12-13T08:55:08.817Z,96889.38
2022-12-13T08:57:37.761Z,96889.88
2022-12-13T09:00:05.980Z,96886.06
2022-12-13T09:02:38.111Z,96891.22
2022-12-13T09:05:07.372Z,96885.06
2022-12-13T09:07:36.140Z,96890.56
2022-12-13T09:10:25.705Z,96884.50
2022-12-13T09:13:01.433Z,96883.63
2022-12-13T09:15:34.606Z,96878.66
2022-12-13T09:18:06.413Z,96886.25
2022-12-13T09:20:42.846Z,96877.06
2022-12-13T09:23:23.982Z,96885.34
2022-12-13T09:26:05.546Z,96886.63
2022-12-13T09:28:36.533Z,96887.19
2022-12-13T09:31:20.182Z,96873.13
2022-12-13T09:33:49.102Z,96879.84
2022-12-13T09:36:17.905Z,96872.78
2022-12-13T09:38:45.038Z,96879.22
2022-12-13T09:41:28.445Z,96883.59
2022-12-13T09:44:01.825Z,96885.31
2022-12-13T09:46:44.323Z,96884.22
2022-12-13T09:49:22.914Z,96874.31
2022-12-13T09:52:04.225Z,96876.19
2022-12-13T09:54:48.333Z,96874.00
2022-12-13T09:57:32.469Z,96872.94
2022-12-13T10:00:16.076Z,96874.25
2022-12-13T10:03:01.373Z,96873.94
2022-12-13T10:05:40.708Z,96876.78
2022-12-13T10:08:18.359Z,96868.50
2022-12-13T10:10:45.405Z,96867.41
2022-12-13T10:13:41.267Z,96870.03
2022-12-13T10:16:23.892Z,96869.63
2022-12-13T10:18:51.257Z,96867.84
2022-12-13T10:21:24.024Z,96863.91
2022-12-13T10:24:23.123Z,96860.34
2022-12-13T10:26:40.462Z,96865.19
2022-12-13T10:29:07.784Z,96866.50
2022-12-13T10:31:50.616Z,96866.94
2022-12-13T10:34:29.664Z,96860.94
2022-12-13T10:37:02.623Z,96864.84
2022-12-13T10:39:43.154Z,96871.59
2022-12-13T10:42:22.818Z,96868.94
2022-12-13T10:45:10.815Z,96858.72
2022-12-13T10:47:41.766Z,96857.16
2022-12-13T10:50:24.443Z,96855.19
2022-12-13T10:52:53.504Z,96855.81
2022-12-13T10:55:28.888Z,96851.56
2022-12-13T10:57:58.594Z,96859.53
2022-12-13T11:00:35.235Z,96845.06
2022-12-13T11:03:04.154Z,96859.72
2022-12-13T11:05:33.637Z,96844.03
2022-12-13T11:08:20.664Z,96849.91
2022-12-13T11:10:57.375Z,96854.44
2022-12-13T11:13:36.389Z,96837.19
2022-12-13T11:16:04.453Z,96838.56
2022-12-13T11:18:39.545Z,96823.28
2022-12-13T11:21:07.891Z,96823.63
2022-12-13T11:23:51.557Z,96811.22
2022-12-13T11:26:24.075Z,96811.84
2022-12-13T11:29:21.529Z,96810.31
2022-12-13T11:32:08.504Z,96801.91
2022-12-13T11:34:53.814Z,96810.34
2022-12-13T11:37:30.778Z,96801.16
2022-12-13T11:40:13.657Z,96804.88
2022-12-13T11:42:46.987Z,96803.81
2022-12-13T11:45:32.053Z,96803.78
2022-12-13T11:48:11.631Z,96812.34
2022-12-13T11:50:43.485Z,96809.56
2022-12-13T11:53:28.370Z,96812.66
2022-12-13T11:56:10.338Z,96813.47
2022-12-13T11:59:05.541Z,96818.88
2022-12-13T12:01:45.267Z,96817.19
2022-12-13T12:04:33.564Z,96814.53
2022-12-13T12:07:32.404Z,96805.66
2022-12-13T12:10:15.733Z,96824.19
2022-12-13T12:12:53.880Z,96819.22
2022-12-13T12:15:32.972Z,96820.47
2022-12-13T12:18:15.474Z,96808.78
2022-12-13T12:20:57.201Z,96814.53
2022-12-13T12:23:41.860Z,96810.63
2022-12-13T12:26:17.642Z,96816.88
2022-12-13T12:29:16.823Z,96809.88
2022-12-13T12:32:07.953Z,96801.63
2022-12-13T12:34:49.607Z,96813.13
2022-12-13T12:37:24.845Z,96809.22
2022-12-13T12:39:58.644Z,96811.84
2022-12-13T12:43:13.284Z,96816.50
2022-12-13T12:46:14.521Z,96820.56
2022-12-13T12:49:02.347Z,96818.56
2022-12-13T12:51:58.909Z,96818.06
2022-12-13T12:55:06.764Z,96819.66
2022-12-13T12:58:01.910Z,96815.28
2022-12-13T13:00:36.089Z,96805.81
2022-12-13T13:03:24.737Z,96810.34
2022-12-13T13:06:03.113Z,96817.97
2022-12-13T13:09:01.660Z,96818.13
2022-12-13T13:11:33.831Z,96826.69
2022-12-13T13:14:21.573Z,96815.78
2022-12-13T13:16:48.278Z,96819.50
2022-12-13T13:19:14.692Z,96811.56
2022-12-13T13:21:48.429Z,96808.47
2022-12-13T13:24:21.009Z,96814.72
2022-12-13T13:26:52.470Z,96800.84
2022-12-13T13:29:27.694Z,96800.53
2022-12-13T13:32:02.193Z,96808.75
2022-12-13T13:34:32.247Z,96793.50
2022-12-13T13:37:00.122Z,96804.09
2022-12-13T13:39:33.177Z,96804.72
2022-12-13T13:42:14.602Z,96796.94
2022-12-13T13:44:49.980Z,96797.88
2022-12-13T13:47:19.227Z,96795.38
2022-12-13T13:50:14.711Z,96798.19
2022-12-13T13:53:09.066Z,96796.78
2022-12-13T13:56:02.139Z,96791.81
2022-12-13T13:59:02.958Z,96784.19
2022-12-13T14:02:15.210Z,96784.31
2022-12-13T14:05:14.621Z,96780.59
2022-12-13T14:08:20.926Z,96787.28
2022-12-13T14:11:08.257Z,96781.34
2022-12-13T14:13:50.138Z,96774.81
2022-12-13T14:16:46.933Z,96770.00
2022-12-13T14:19:27.509Z,96774.66
2022-12-13T14:22:34.998Z,96778.09
2022-12-13T14:25:40.248Z,96773.56
2022-12-13T14:28:25.687Z,96797.38
2022-12-13T14:30:56.719Z,96780.22
2022-12-13T14:33:26.769Z,96771.06
2022-12-13T14:36:01.784Z,96780.53
2022-12-13T14:38:31.822Z,96771.53
2022-12-13T14:41:01.207Z,96783.03
2022-12-13T14:43:31.935Z,96789.41
2022-12-13T14:46:04.124Z,96776.63
2022-12-13T14:48:37.418Z,96769.81
2022-12-13T14:51:04.791Z,96778.19
2022-12-13T14:53:43.512Z,96775.56
2022-12-13T14:56:28.543Z,96774.47
2022-12-13T14:59:01.402Z,96783.50
2022-12-13T15:01:33.602Z,96782.41
2022-12-13T15:04:27.457Z,96787.84
2022-12-13T15:07:23.322Z,96774.16
2022-12-13T15:09:55.490Z,96769.63
2022-12-13T15:12:25.420Z,96772.09
2022-12-13T15:15:02.749Z,96773.66
2022-12-13T15:17:40.130Z,96773.97
2022-12-13T15:20:32.852Z,96776.75
2022-12-13T15:23:06.220Z,96780.19
2022-12-13T15:25:37.658Z,96782.84
2022-12-13T15:28:05.367Z,96779.41
2022-12-13T15:30:34.771Z,96782.34
2022-12-13T15:33:29.050Z,96796.38
2022-12-13T15:36:15.675Z,96804.00
2022-12-13T15:38:54.989Z,96800.84
2022-12-13T15:41:26.892Z,96803.34
2022-12-13T15:44:00.225Z,96808.94
2022-12-13T15:46:29.113Z,96803.66
2022-12-13T15:48:59.452Z,96805.50
2022-12-13T15:51:29.929Z,96802.84
2022-12-13T15:54:09.303Z,96794.47
2022-12-13T15:56:40.452Z,96810.03
2022-12-13T15:59:29.792Z,96809.56
2022-12-13T16:02:05.705Z,96808.00
2022-12-13T16:04:33.014Z,96787.47
2022-12-13T16:07:02.262Z,96793.97
2022-12-13T16:09:36.165Z,96796.88
2022-12-13T16:12:06.821Z,96798.56
2022-12-13T16:14:48.811Z,96792.94
2022-12-13T16:17:27.244Z,96783.91
2022-12-13T16:19:57.605Z,96795.84
2022-12-13T16:22:24.399Z,96793.78
2022-12-13T16:24:52.161Z,96785.41
2022-12-13T16:27:18.913Z,96778.72
2022-12-13T16:29:47.905Z,96781.94
2022-12-13T16:32:14.424Z,96770.59
2022-12-13T16:34:42.686Z,96769.03
2022-12-13T16:37:26.685Z,96766.69
2022-12-13T16:39:54.129Z,96764.56
2022-12-13T16:42:26.466Z,96764.56
2022-12-13T16:45:17.835Z,96759.28
2022-12-13T16:47:48.503Z,96761.91
2022-12-13T16:50:19.353Z,96753.19
2022-12-13T16:52:46.345Z,96746.06
2022-12-13T16:55:12.825Z,96733.31
2022-12-13T16:57:39.989Z,96737.53
2022-12-13T17:00:12.900Z,96742.03
2022-12-13T17:02:39.522Z,96727.56
2022-12-13T17:05:08.189Z,96729.13
2022-12-13T17:07:35.602Z,96726.47
2022-12-13T17:10:02.383Z,96722.28
2022-12-13T17:12:34.317Z,96713.28
2022-12-13T17:15:01.575Z,96722.75
2022-12-13T17:17:28.092Z,96719.03
2022-12-13T17:19:54.850Z,96711.13
2022-12-13T17:22:21.613Z,96720.00
2022-12-13T17:24:48.155Z,96724.19
2022-12-13T17:27:16.463Z,96714.41
2022-12-13T17:29:42.970Z,96712.22
2022-12-13T17:32:09.883Z,96717.81
2022-12-13T17:34:38.180Z,96708.03
2022-12-13T17:37:10.184Z,96709.88
2022-12-13T17:39:37.277Z,96714.88
2022-12-13T17:42:04.045Z,96719.38
2022-12-13T17:44:31.087Z,96719.06
2022-12-13T17:46:57.593Z,96722.78
2022-12-13T17:49:26.656Z,96722.63
2022-12-13T17:51:54.344Z,96729.59
2022-12-13T17:54:22.853Z,96726.31
2022-12-13T17:56:51.393Z,96716.69
2022-12-13T17:59:18.014Z,96714.16
2022-12-13T18:01:45.745Z,96736.03
2022-12-13T18:04:19.224Z,96731.56
2022-12-13T18:06:45.943Z,96723.94
2022-12-13T18:09:14.778Z,96722.38
2022-12-13T18:11:43.559Z,96714.78
2022-12-13T18:14:10.176Z,96731.06
2022-12-13T18:16:40.426Z,96715.22
2022-12-13T18:19:09.171Z,96711.06
2022-12-13T18:21:36.769Z,96701.56
2022-12-13T18:24:04.201Z,96711.16
2022-12-13T18:26:35.161Z,96715.97
2022-12-13T18:29:02.896Z,96703.69
2022-12-13T18:31:29.511Z,96707.13
2022-12-13T18:33:56.283Z,96709.75
2022-12-13T18:36:25.008Z,96708.19
2022-12-13T18:38:59.392Z,96706.31
2022-12-13T18:41:28.396Z,96708.66
2022-12-13T18:43:59.452Z,96706.63
2022-12-13T18:46:33.605Z,96710.84
2022-12-13T18:49:00.337Z,96698.72
2022-12-13T18:51:32.845Z,96691.75
2022-12-13T18:53:59.698Z,96683.81
2022-12-13T18:56:26.469Z,96690.19
2022-12-13T18:58:53.589Z,96693.13
2022-12-13T19:01:29.133Z,96696.56
2022-12-13T19:03:56.098Z,96669.06
2022-12-13T19:06:25.717Z,96679.91
2022-12-13T19:08:55.787Z,96677.47
2022-12-13T19:11:23.720Z,96670.31
2022-12-13T19:13:53.766Z,96671.56
2022-12-13T19:16:22.248Z,96663.66
2022-12-13T19:18:49.096Z,96665.53
2022-12-13T19:21:18.673Z,96643.59
2022-12-13T19:23:49.553Z,96624.06
2022-12-13T19:26:21.472Z,96637.72
2022-12-13T19:28:48.173Z,96643.00
2022-12-13T19:31:15.862Z,96634.00
2022-12-13T19:33:43.048Z,96646.88
2022-12-13T19:36:13.169Z,96627.63
2022-12-13T19:38:43.721Z,96634.19
2022-12-13T19:41:14.511Z,96634.94
2022-12-13T19:43:41.601Z,96630.75
2022-12-13T19:46:08.898Z,96631.22
2022-12-13T19:48:37.857Z,96627.03
2022-12-13T19:51:06.975Z,96628.09
2022-12-13T19:53:34.713Z,96627.03
2022-12-13T19:56:01.247Z,96625.94
2022-12-13T19:58:27.788Z,96608.84
2022-12-13T20:01:02.337Z,96620.19
2022-12-13T20:03:32.911Z,96617.72
2022-12-13T20:06:01.127Z,96600.81
2022-12-13T20:08:28.104Z,96604.22
2022-12-13T20:11:02.871Z,96604.97
2022-12-13T20:13:32.494Z,96603.91
2022-12-13T20:15:59.211Z,96595.97
2022-12-13T20:18:26.213Z,96594.41
2022-12-13T20:21:12.608Z,96582.00
2022-12-13T20:23:41.154Z,96595.22
2022-12-13T20:26:11.726Z,96580.44
2022-12-13T20:28:38.582Z,96574.84
2022-12-13T20:31:11.184Z,96570.34
2022-12-13T20:33:38.730Z,96569.56
2022-12-13T20:36:29.150Z,96581.53
2022-12-13T20:38:57.708Z,96582.31
2022-12-13T20:41:26.279Z,96581.22
2022-12-13T20:43:54.470Z,96576.41
2022-12-13T20:46:21.939Z,96572.66
2022-12-13T20:48:49.422Z,96582.66
2022-12-13T20:51:19.074Z,96581.84
2022-12-13T20:53:47.610Z,96587.75
2022-12-13T20:56:16.656Z,96593.78
2022-12-13T20:58:43.283Z,96597.22
2022-12-13T21:01:15.621Z,96599.06
2022-12-13T21:03:44.574Z,96601.72
2022-12-13T21:06:11.442Z,96586.19
2022-12-13T21:08:56.371Z,96579.81
2022-12-13T21:11:30.163Z,96591.47
2022-12-13T21:14:07.971Z,96579.81
2022-12-13T21:16:41.403Z,96582.94
2022-12-13T21:19:10.240Z,96591.34
2022-12-13T21:21:37.187Z,96586.50
2022-12-13T21:24:04.474Z,96577.50
2022-12-13T21:26:35.202Z,96582.78
2022-12-13T21:29:06.644Z,96570.06
2022-12-13T21:31:34.112Z,96563.22
2022-12-13T21:34:02.258Z,96567.13
2022-12-13T21:36:31.029Z,96557.31
2022-12-13T21:39:00.509Z,96564.63
2022-12-13T21:41:28.068Z,96560.44
2022-12-13T21:43:55.232Z,96562.47
2022-12-13T21:46:28.257Z,96555.63
2022-12-13T21:49:02.552Z,96542.41
2022-12-13T21:51:33.907Z,96547.69
2022-12-13T21:54:04.042Z,96553.44
2022-12-13T21:56:49.830Z,96542.09
2022-12-13T21:59:21.243Z,96553.16
2022-12-13T22:02:14.433Z,96538.06
2022-12-13T22:04:51.386Z,96541.78
2022-12-13T22:07:31.255Z,96541.16
2022-12-13T22:09:59.432Z,96533.25
2022-12-13T22:12:30.784Z,96530.59
2022-12-13T22:15:02.460Z,96528.44
2022-12-13T22:17:35.110Z,96532.34
2022-12-13T22:20:02.713Z,96547.88
2022-12-13T22:22:29.592Z,96539.94
2022-12-13T22:24:56.365Z,96542.28
2022-12-13T22:27:26.076Z,96544.59
2022-12-13T22:29:54.474Z,96516.31
2022-12-13T22:32:21.221Z,96525.78
2022-12-13T22:34:47.943Z,96535.28
2022-12-13T22:37:19.469Z,96521.75
2022-12-13T22:39:45.980Z,96523.78
2022-12-13T22:42:12.540Z,96507.94
2022-12-13T22:44:39.226Z,96515.53
2022-12-13T22:47:10.424Z,96520.50
2022-12-13T22:49:36.987Z,96497.97
2022-12-13T22:52:03.690Z,96501.38
2022-12-13T22:54:30.181Z,96502.94
2022-12-13T22:56:56.885Z,96496.56
2022-12-13T22:59:25.197Z,96493.16
2022-12-13T23:01:54.378Z,96491.75
2022-12-13T23:04:23.722Z,96491.75
2022-12-13T23:06:50.250Z,96477.94
2022-12-13T23:09:16.971Z,96479.94
2022-12-13T23:12:03.617Z,96484.44
2022-12-13T23:14:33.685Z,96476.81
2022-12-13T23:17:01.433Z,96469.38
2022-12-13T23:19:41.518Z,96477.75
2022-12-13T23:22:22.432Z,96465.00
2022-12-13T23:24:49.925Z,96462.38
2022-12-13T23:27:16.649Z,96448.03
2022-12-13T23:29:43.148Z,96454.44
2022-12-13T23:32:11.361Z,96463.44
2022-12-13T23:34:37.941Z,96459.25
2022-12-13T23:37:04.917Z,96449.75
2022-12-13T23:39:37.910Z,96451.31
2022-12-13T23:42:04.596Z,96455.03
2022-12-13T23:44:31.099Z,96457.22
2022-12-13T23:46:57.689Z,96478.38
2022-12-13T23:49:26.491Z,96446.22
2022-12-13T23:51:54.271Z,96447.94
2022-12-13T23:54:22.509Z,96435.03
2022-12-13T23:56:48.988Z,96439.53
2022-12-13T23:59:15.675Z,96454.13
